Terminal Aerodrome Forecast
Issued by NWS Duluth, MN

Home | Current Version | Previous Version | Text Only | Print | Product List | Glossary On
Versions: 1 2 3 4 5 6 7 8 9 10 11 12 13 14 15 16 17 18 19 20
743
FTUS43 KDLH 141132
TAFDLH
TAF
KDLH 141132Z 1412/1512 07004KT P6SM FEW250
     FM142100 07015G26KT P6SM BKN100
     FM142300 06012G21KT P6SM -RA OVC090
     FM150200 05010KT P6SM -RA OVC040
     FM150500 02010KT 4SM -RA OVC025
     FM151000 34010KT P6SM BKN045=

USA.gov is the U.S. government's official web portal to all federal, state and local government web resources and services.